createdAt,value
2022-10-22T00:01:28.582Z,48.01
2022-10-22T00:05:44.776Z,46.59
2022-10-22T00:10:01.094Z,47.46
2022-10-22T00:14:17.611Z,48.24
2022-10-22T00:18:33.737Z,48.13
2022-10-22T00:27:12.476Z,48.12
2022-10-22T00:31:28.609Z,47.50
2022-10-22T00:35:45.336Z,48.78
2022-10-22T00:40:01.498Z,48.58
2022-10-22T00:44:55.055Z,48.18
2022-10-22T00:49:11.250Z,46.91
2022-10-22T00:53:39.909Z,47.72
2022-10-22T00:57:57.731Z,47.87
2022-10-22T01:02:13.910Z,48.33
2022-10-22T01:06:34.851Z,48.31
2022-10-22T01:11:17.467Z,50.28
2022-10-22T01:15:46.086Z,50.87
2022-10-22T01:20:29.647Z,49.70
2022-10-22T01:24:49.285Z,49.39
2022-10-22T01:29:19.121Z,49.29
2022-10-22T01:33:36.568Z,49.56
2022-10-22T01:37:59.607Z,49.39
2022-10-22T01:42:15.760Z,48.65
2022-10-22T01:46:32.636Z,48.57
2022-10-22T01:51:03.985Z,49.87
2022-10-22T01:55:29.040Z,49.02
2022-10-22T01:59:50.848Z,49.39
2022-10-22T02:04:19.181Z,48.91
2022-10-22T02:08:36.027Z,48.58
2022-10-22T02:12:54.890Z,48.34
2022-10-22T02:17:16.166Z,48.02
2022-10-22T02:21:32.458Z,48.73
2022-10-22T02:25:51.887Z,49.57
2022-10-22T02:34:37.769Z,49.20
2022-10-22T02:38:54.550Z,48.61
2022-10-22T02:43:11.011Z,48.59
2022-10-22T02:47:27.229Z,48.30
2022-10-22T02:51:43.466Z,48.93
2022-10-22T02:56:00.394Z,49.15
2022-10-22T03:00:17.059Z,49.62
2022-10-22T03:04:33.252Z,49.21
2022-10-22T03:08:49.508Z,49.53
2022-10-22T03:13:05.667Z,49.92
2022-10-22T03:17:21.775Z,49.32
2022-10-22T03:21:52.313Z,49.63
2022-10-22T03:26:08.824Z,49.63
2022-10-22T03:30:24.956Z,49.15
2022-10-22T03:34:41.145Z,49.76
2022-10-22T03:38:57.211Z,50.55
2022-10-22T03:43:13.525Z,51.34
2022-10-22T03:47:29.601Z,51.21
2022-10-22T03:51:45.729Z,51.54
2022-10-22T03:56:01.985Z,50.71
2022-10-22T04:00:18.334Z,51.29
2022-10-22T04:04:34.695Z,51.22
2022-10-22T04:08:51.079Z,50.55
2022-10-22T04:13:07.280Z,50.85
2022-10-22T04:17:23.495Z,50.28
2022-10-22T04:21:39.597Z,50.51
2022-10-22T04:26:00.500Z,51.02
2022-10-22T04:30:16.744Z,51.92
2022-10-22T04:34:32.818Z,51.99
2022-10-22T04:38:52.890Z,51.97
2022-10-22T04:43:09.032Z,51.22
2022-10-22T04:47:25.276Z,52.03
2022-10-22T04:51:41.764Z,52.17
2022-10-22T04:56:11.673Z,52.56
2022-10-22T05:00:28.006Z,52.62
2022-10-22T05:04:45.308Z,53.60
2022-10-22T05:09:04.083Z,53.88
2022-10-22T05:13:20.406Z,54.00
2022-10-22T05:17:37.768Z,53.38
2022-10-22T05:21:56.037Z,53.99
2022-10-22T05:26:14.014Z,53.17
2022-10-22T05:30:30.253Z,52.74
2022-10-22T05:34:46.371Z,52.90
2022-10-22T05:39:02.555Z,52.58
2022-10-22T05:43:18.722Z,55.35
2022-10-22T05:47:34.879Z,54.68
2022-10-22T05:51:51.043Z,54.12
2022-10-22T05:56:11.151Z,53.94
2022-10-22T06:00:27.351Z,53.96
2022-10-22T06:04:43.595Z,53.54
2022-10-22T06:09:03.332Z,54.40
2022-10-22T06:13:19.446Z,54.17
2022-10-22T06:17:35.566Z,54.07
2022-10-22T06:21:51.706Z,55.93
2022-10-22T06:26:09.247Z,56.33
2022-10-22T06:30:25.527Z,58.56
2022-10-22T06:34:41.656Z,57.02
2022-10-22T06:38:57.927Z,55.26
2022-10-22T06:43:14.824Z,60.02
2022-10-22T06:47:33.591Z,56.59
2022-10-22T06:51:53.922Z,54.04
2022-10-22T06:56:15.513Z,53.69
2022-10-22T07:04:47.826Z,54.11
2022-10-22T07:09:04.296Z,56.19
2022-10-22T07:13:21.255Z,55.90
2022-10-22T07:17:37.398Z,56.07
2022-10-22T07:21:54.640Z,56.36
2022-10-22T07:26:14.199Z,58.05
2022-10-22T07:30:30.438Z,56.98
2022-10-22T07:34:46.548Z,57.06
2022-10-22T07:39:03.736Z,55.96
2022-10-22T07:43:20.226Z,55.75
2022-10-22T07:47:36.671Z,58.09
2022-10-22T07:51:52.880Z,59.01
2022-10-22T07:56:09.228Z,56.43
2022-10-22T08:00:25.575Z,56.58
2022-10-22T08:04:42.253Z,55.49
2022-10-22T08:08:58.434Z,55.76
2022-10-22T08:13:15.427Z,55.19
2022-10-22T08:17:31.608Z,53.47
2022-10-22T08:21:48.387Z,51.69
2022-10-22T08:26:04.968Z,52.92
2022-10-22T08:30:21.463Z,51.92
2022-10-22T08:34:37.573Z,48.46
2022-10-22T08:38:54.063Z,48.77
2022-10-22T08:43:16.350Z,49.88
2022-10-22T08:47:59.979Z,45.88
2022-10-22T08:52:19.069Z,49.80
2022-10-22T08:56:37.007Z,50.89
2022-10-22T09:01:18.335Z,50.30
2022-10-22T09:10:13.311Z,50.59
2022-10-22T09:14:30.167Z,50.39
2022-10-22T09:19:08.415Z,49.48
2022-10-22T09:23:40.141Z,49.29
2022-10-22T09:27:58.818Z,45.64
2022-10-22T09:32:18.690Z,43.78
2022-10-22T09:36:36.239Z,43.41
2022-10-22T09:40:54.570Z,43.02
2022-10-22T09:45:26.963Z,42.91
2022-10-22T09:49:43.386Z,40.63
2022-10-22T09:54:02.124Z,42.28
2022-10-22T09:58:19.078Z,41.66
2022-10-22T10:02:38.747Z,41.91
2022-10-22T10:07:00.021Z,41.75
2022-10-22T10:11:43.629Z,40.99
2022-10-22T10:16:29.230Z,41.40
2022-10-22T10:21:10.930Z,41.02
2022-10-22T10:25:36.339Z,41.30
2022-10-22T10:30:14.194Z,42.34
2022-10-22T10:35:20.145Z,42.20
2022-10-22T10:39:44.921Z,41.68
2022-10-22T10:44:16.046Z,41.35
2022-10-22T10:48:55.971Z,41.15
2022-10-22T10:53:33.916Z,41.04
2022-10-22T10:58:19.689Z,41.83
2022-10-22T11:03:03.802Z,42.73
2022-10-22T11:07:35.264Z,42.70
2022-10-22T11:12:01.118Z,44.76
2022-10-22T11:16:37.515Z,41.58
2022-10-22T11:20:57.427Z,41.97
2022-10-22T11:25:13.550Z,41.72
2022-10-22T11:29:41.202Z,42.53
2022-10-22T11:34:32.582Z,45.47
2022-10-22T11:38:50.215Z,43.95
2022-10-22T11:43:11.277Z,43.03
2022-10-22T11:47:33.272Z,42.76
2022-10-22T11:51:50.172Z,42.74
2022-10-22T11:56:10.882Z,42.43
2022-10-22T12:00:48.285Z,45.33
2022-10-22T12:05:33.455Z,46.16
2022-10-22T12:14:45.784Z,44.96
2022-10-22T12:19:23.476Z,44.52
2022-10-22T12:23:39.595Z,44.61
2022-10-22T12:28:00.025Z,43.94
2022-10-22T12:32:17.067Z,45.64
2022-10-22T12:36:36.014Z,46.48
2022-10-22T12:40:55.775Z,47.60
2022-10-22T12:45:11.971Z,46.62
2022-10-22T12:49:38.907Z,46.26
2022-10-22T12:54:02.363Z,45.82
2022-10-22T12:58:20.375Z,46.60
2022-10-22T13:02:36.430Z,46.50
2022-10-22T13:07:17.009Z,46.73
2022-10-22T13:11:41.589Z,45.98
2022-10-22T13:16:12.687Z,46.86
2022-10-22T13:20:29.020Z,48.31
2022-10-22T13:24:51.616Z,48.12
2022-10-22T13:29:12.711Z,48.25
2022-10-22T13:33:42.659Z,48.62
2022-10-22T13:37:59.515Z,48.76
2022-10-22T13:42:15.623Z,50.32
2022-10-22T13:46:32.252Z,49.57
2022-10-22T13:50:51.957Z,49.03
2022-10-22T13:55:29.478Z,51.01
2022-10-22T13:59:45.710Z,50.04
2022-10-22T14:04:04.781Z,50.89
2022-10-22T14:08:23.294Z,50.16
2022-10-22T14:12:39.389Z,51.43
2022-10-22T14:16:55.480Z,50.66
2022-10-22T14:21:13.492Z,50.98
2022-10-22T14:25:31.891Z,52.25
2022-10-22T14:29:48.075Z,53.73
2022-10-22T14:34:04.173Z,54.33
2022-10-22T14:38:20.845Z,55.40
2022-10-22T14:42:42.956Z,55.16
2022-10-22T14:46:59.333Z,55.92
2022-10-22T14:51:17.810Z,56.41
2022-10-22T14:55:34.359Z,55.97
2022-10-22T14:59:50.661Z,56.98
2022-10-22T15:04:06.778Z,57.48
2022-10-22T15:08:22.975Z,57.89
2022-10-22T15:12:39.268Z,59.54
2022-10-22T15:16:55.333Z,60.54
2022-10-22T15:21:19.937Z,61.47
2022-10-22T15:25:36.051Z,61.97
2022-10-22T15:29:52.275Z,63.82
2022-10-22T15:34:08.412Z,63.48
2022-10-22T15:42:46.858Z,66.68
2022-10-22T15:47:07.498Z,66.92
2022-10-22T15:51:24.292Z,67.93
2022-10-22T15:55:40.753Z,65.29
2022-10-22T15:59:56.939Z,64.59
2022-10-22T16:04:13.565Z,63.87
2022-10-22T16:08:30.095Z,66.28
2022-10-22T16:12:46.594Z,66.76
2022-10-22T16:17:02.723Z,66.22
2022-10-22T16:21:20.611Z,65.34
2022-10-22T16:25:43.760Z,66.53
2022-10-22T16:29:59.912Z,65.63
2022-10-22T16:34:16.057Z,66.04
2022-10-22T16:38:32.247Z,66.40
2022-10-22T16:42:48.671Z,66.36
2022-10-22T16:47:04.811Z,65.94
2022-10-22T16:51:23.886Z,66.91
2022-10-22T16:55:41.291Z,67.14
2022-10-22T16:59:57.756Z,67.19
2022-10-22T17:04:14.276Z,66.49
2022-10-22T17:08:31.077Z,66.22
2022-10-22T17:12:48.314Z,66.22
2022-10-22T17:17:04.446Z,65.80
2022-10-22T17:21:21.289Z,65.66
2022-10-22T17:25:42.994Z,66.20
2022-10-22T17:29:59.095Z,66.64
2022-10-22T17:34:19.068Z,67.39
2022-10-22T17:38:35.643Z,66.21
2022-10-22T17:42:51.829Z,66.34
2022-10-22T17:47:08.016Z,67.12
2022-10-22T17:51:25.060Z,67.14
2022-10-22T17:55:41.764Z,66.46
2022-10-22T17:59:57.892Z,66.85
2022-10-22T18:04:19.446Z,66.74
2022-10-22T18:08:36.245Z,66.02
2022-10-22T18:12:52.478Z,66.61
2022-10-22T18:17:08.773Z,66.22
2022-10-22T18:21:27.983Z,67.87
2022-10-22T18:25:44.263Z,66.22
2022-10-22T18:30:00.410Z,66.13
2022-10-22T18:34:21.591Z,65.81
2022-10-22T18:38:40.216Z,65.33
2022-10-22T18:42:56.917Z,66.59
2022-10-22T18:47:13.127Z,65.95
2022-10-22T18:51:31.730Z,65.96
2022-10-22T18:55:47.906Z,64.96
2022-10-22T19:00:05.131Z,66.47
2022-10-22T19:04:21.315Z,64.91
2022-10-22T19:08:38.029Z,65.62
2022-10-22T19:12:54.664Z,65.12
2022-10-22T19:17:10.866Z,65.68
2022-10-22T19:21:27.036Z,64.26
2022-10-22T19:25:43.270Z,65.56
2022-10-22T19:29:59.399Z,65.10
2022-10-22T19:34:20.159Z,65.62
2022-10-22T19:38:40.794Z,65.72
2022-10-22T19:42:57.109Z,65.16
2022-10-22T19:47:13.334Z,66.12
2022-10-22T19:51:30.693Z,67.77
2022-10-22T19:55:47.078Z,65.16
2022-10-22T20:00:03.760Z,66.18
2022-10-22T20:04:20.061Z,66.76
2022-10-22T20:08:40.059Z,68.51
2022-10-22T20:12:56.276Z,67.40
2022-10-22T20:17:12.869Z,67.67
2022-10-22T20:21:29.443Z,66.36
2022-10-22T20:25:47.862Z,67.73
2022-10-22T20:30:06.020Z,66.31
2022-10-22T20:34:22.330Z,68.29
2022-10-22T20:38:38.555Z,66.66
2022-10-22T20:42:54.644Z,66.84
2022-10-22T20:47:12.620Z,65.76
2022-10-22T20:51:29.523Z,65.14
2022-10-22T20:55:46.067Z,65.30
2022-10-22T21:00:02.252Z,65.31
2022-10-22T21:04:20.012Z,64.78
2022-10-22T21:08:36.131Z,65.26
2022-10-22T21:12:52.380Z,66.01
2022-10-22T21:17:08.836Z,65.07
2022-10-22T21:21:25.052Z,64.80
2022-10-22T21:25:43.380Z,65.26
2022-10-22T21:30:00.653Z,65.14
2022-10-22T21:34:17.871Z,66.57
2022-10-22T21:38:35.201Z,65.93
2022-10-22T21:42:51.588Z,65.25
2022-10-22T21:47:07.949Z,65.50
2022-10-22T21:51:25.732Z,64.51
2022-10-22T21:55:42.018Z,65.08
2022-10-22T21:59:58.225Z,67.99
2022-10-22T22:04:14.375Z,69.44
2022-10-22T22:08:30.783Z,68.96
2022-10-22T22:12:47.087Z,69.85
2022-10-22T22:17:03.220Z,68.55
2022-10-22T22:21:21.355Z,68.62
2022-10-22T22:25:37.563Z,70.81
2022-10-22T22:29:54.792Z,68.41
2022-10-22T22:34:16.799Z,68.81
2022-10-22T22:38:33.238Z,68.81
2022-10-22T22:42:49.850Z,68.88
2022-10-22T22:47:06.118Z,67.88
2022-10-22T22:51:22.309Z,67.77
2022-10-22T22:55:38.447Z,67.57
2022-10-22T22:59:54.659Z,70.69
2022-10-22T23:04:22.783Z,68.75
2022-10-22T23:08:39.223Z,69.22
2022-10-22T23:12:55.375Z,68.49
2022-10-22T23:17:11.524Z,68.92
2022-10-22T23:21:30.431Z,67.45
2022-10-22T23:25:46.597Z,68.11
2022-10-22T23:30:02.904Z,66.93
2022-10-22T23:34:21.358Z,68.53
2022-10-22T23:38:39.410Z,67.45
2022-10-22T23:42:55.678Z,66.01
2022-10-22T23:47:11.932Z,66.43
2022-10-22T23:51:28.548Z,65.73
2022-10-22T23:55:45.405Z,65.47
